sensor_id;sensor_type;location;lat;lon;timestamp;P1;durP1;ratioP1;P2;durP2;ratioP2
56299;SDS011;42209;6.376;-10.782;2023-12-14T00:01:38;17.13;;;12.48;;
56299;SDS011;42209;6.376;-10.782;2023-12-14T00:04:06;17.88;;;11.68;;
56299;SDS011;42209;6.376;-10.782;2023-12-14T00:06:35;20.40;;;12.90;;
56299;SDS011;42209;6.376;-10.782;2023-12-14T00:11:31;15.27;;;12.52;;
56299;SDS011;42209;6.376;-10.782;2023-12-14T00:14:00;13.23;;;11.88;;
56299;SDS011;42209;6.376;-10.782;2023-12-14T00:16:28;14.68;;;11.18;;
56299;SDS011;42209;6.376;-10.782;2023-12-14T00:18:57;17.35;;;11.25;;
56299;SDS011;42209;6.376;-10.782;2023-12-14T00:23:53;16.02;;;11.77;;
56299;SDS011;42209;6.376;-10.782;2023-12-14T00:26:22;16.80;;;11.65;;
56299;SDS011;42209;6.376;-10.782;2023-12-14T00:28:50;16.30;;;12.98;;
56299;SDS011;42209;6.376;-10.782;2023-12-14T00:31:28;13.82;;;12.35;;
56299;SDS011;42209;6.376;-10.782;2023-12-14T00:33:56;19.40;;;12.48;;
56299;SDS011;42209;6.376;-10.782;2023-12-14T00:36:25;17.52;;;13.00;;
56299;SDS011;42209;6.376;-10.782;2023-12-14T00:38:53;16.65;;;12.80;;
56299;SDS011;42209;6.376;-10.782;2023-12-14T00:41:21;18.98;;;12.05;;
56299;SDS011;42209;6.376;-10.782;2023-12-14T00:43:49;17.60;;;12.90;;
56299;SDS011;42209;6.376;-10.782;2023-12-14T00:46:18;13.85;;;12.10;;
56299;SDS011;42209;6.376;-10.782;2023-12-14T00:48:46;16.67;;;12.45;;
56299;SDS011;42209;6.376;-10.782;2023-12-14T00:51:15;16.63;;;13.40;;
56299;SDS011;42209;6.376;-10.782;2023-12-14T00:53:43;16.65;;;14.43;;
56299;SDS011;42209;6.376;-10.782;2023-12-14T00:56:11;16.23;;;12.85;;
56299;SDS011;42209;6.376;-10.782;2023-12-14T00:58:40;16.35;;;13.85;;
56299;SDS011;42209;6.376;-10.782;2023-12-14T01:01:08;17.08;;;13.73;;
56299;SDS011;42209;6.376;-10.782;2023-12-14T01:03:36;17.48;;;13.60;;
56299;SDS011;42209;6.376;-10.782;2023-12-14T01:06:05;18.77;;;14.82;;
56299;SDS011;42209;6.376;-10.782;2023-12-14T01:13:30;21.02;;;14.77;;
56299;SDS011;42209;6.376;-10.782;2023-12-14T01:15:58;18.00;;;14.50;;
56299;SDS011;42209;6.376;-10.782;2023-12-14T01:18:27;19.30;;;14.85;;
56299;SDS011;42209;6.376;-10.782;2023-12-14T01:20:55;17.52;;;14.55;;
56299;SDS011;42209;6.376;-10.782;2023-12-14T01:23:24;19.33;;;15.45;;
56299;SDS011;42209;6.376;-10.782;2023-12-14T01:25:52;21.00;;;15.85;;
56299;SDS011;42209;6.376;-10.782;2023-12-14T01:28:20;19.27;;;16.23;;
56299;SDS011;42209;6.376;-10.782;2023-12-14T01:30:49;19.25;;;16.05;;
56299;SDS011;42209;6.376;-10.782;2023-12-14T01:33:17;19.15;;;15.52;;
56299;SDS011;42209;6.376;-10.782;2023-12-14T01:35:45;20.20;;;15.90;;
56299;SDS011;42209;6.376;-10.782;2023-12-14T01:38:14;19.83;;;14.52;;
56299;SDS011;42209;6.376;-10.782;2023-12-14T01:40:42;18.13;;;14.90;;
56299;SDS011;42209;6.376;-10.782;2023-12-14T01:43:10;20.95;;;17.25;;
56299;SDS011;42209;6.376;-10.782;2023-12-14T01:45:39;16.80;;;15.02;;
56299;SDS011;42209;6.376;-10.782;2023-12-14T01:48:07;23.42;;;17.65;;
56299;SDS011;42209;6.376;-10.782;2023-12-14T01:50:36;19.13;;;15.63;;
56299;SDS011;42209;6.376;-10.782;2023-12-14T01:53:04;22.65;;;16.55;;
56299;SDS011;42209;6.376;-10.782;2023-12-14T01:55:33;20.17;;;16.58;;
56299;SDS011;42209;6.376;-10.782;2023-12-14T01:58:01;22.27;;;18.10;;
56299;SDS011;42209;6.376;-10.782;2023-12-14T02:03:20;19.10;;;15.68;;
56299;SDS011;42209;6.376;-10.782;2023-12-14T02:05:48;18.27;;;16.27;;
56299;SDS011;42209;6.376;-10.782;2023-12-14T02:08:17;19.98;;;16.33;;
56299;SDS011;42209;6.376;-10.782;2023-12-14T02:10:45;19.52;;;17.17;;
56299;SDS011;42209;6.376;-10.782;2023-12-14T02:13:13;24.38;;;17.75;;
56299;SDS011;42209;6.376;-10.782;2023-12-14T02:15:42;24.35;;;18.70;;
56299;SDS011;42209;6.376;-10.782;2023-12-14T02:18:10;19.27;;;16.10;;
56299;SDS011;42209;6.376;-10.782;2023-12-14T02:20:39;22.80;;;17.55;;
56299;SDS011;42209;6.376;-10.782;2023-12-14T02:23:07;21.83;;;16.45;;
56299;SDS011;42209;6.376;-10.782;2023-12-14T02:25:36;20.45;;;17.13;;
56299;SDS011;42209;6.376;-10.782;2023-12-14T02:28:04;20.40;;;16.45;;
56299;SDS011;42209;6.376;-10.782;2023-12-14T02:30:32;22.92;;;17.95;;
56299;SDS011;42209;6.376;-10.782;2023-12-14T02:33:01;23.75;;;18.05;;
56299;SDS011;42209;6.376;-10.782;2023-12-14T02:35:29;21.55;;;17.58;;
56299;SDS011;42209;6.376;-10.782;2023-12-14T02:37:58;21.25;;;17.15;;
56299;SDS011;42209;6.376;-10.782;2023-12-14T02:40:26;20.88;;;17.70;;
56299;SDS011;42209;6.376;-10.782;2023-12-14T02:42:55;21.23;;;16.48;;
56299;SDS011;42209;6.376;-10.782;2023-12-14T02:45:23;23.58;;;17.40;;
56299;SDS011;42209;6.376;-10.782;2023-12-14T02:47:51;21.23;;;18.17;;
56299;SDS011;42209;6.376;-10.782;2023-12-14T02:50:20;19.83;;;16.67;;
56299;SDS011;42209;6.376;-10.782;2023-12-14T02:52:48;21.88;;;17.23;;
56299;SDS011;42209;6.376;-10.782;2023-12-14T02:55:16;22.48;;;18.20;;
56299;SDS011;42209;6.376;-10.782;2023-12-14T02:57:45;21.30;;;17.08;;
56299;SDS011;42209;6.376;-10.782;2023-12-14T03:00:13;18.92;;;16.92;;
56299;SDS011;42209;6.376;-10.782;2023-12-14T03:05:10;21.77;;;17.27;;
56299;SDS011;42209;6.376;-10.782;2023-12-14T03:07:39;20.08;;;16.98;;
56299;SDS011;42209;6.376;-10.782;2023-12-14T03:10:07;23.13;;;18.40;;
56299;SDS011;42209;6.376;-10.782;2023-12-14T03:12:36;20.88;;;18.33;;
56299;SDS011;42209;6.376;-10.782;2023-12-14T03:15:05;23.25;;;18.08;;
56299;SDS011;42209;6.376;-10.782;2023-12-14T03:17:33;20.67;;;16.95;;
56299;SDS011;42209;6.376;-10.782;2023-12-14T03:20:02;21.98;;;18.23;;
56299;SDS011;42209;6.376;-10.782;2023-12-14T03:24:59;19.38;;;17.15;;
56299;SDS011;42209;6.376;-10.782;2023-12-14T03:27:27;20.52;;;18.13;;
56299;SDS011;42209;6.376;-10.782;2023-12-14T03:29:55;20.75;;;16.98;;
56299;SDS011;42209;6.376;-10.782;2023-12-14T03:32:24;20.10;;;17.40;;
56299;SDS011;42209;6.376;-10.782;2023-12-14T03:34:52;21.77;;;17.85;;
56299;SDS011;42209;6.376;-10.782;2023-12-14T03:37:21;23.17;;;18.15;;
56299;SDS011;42209;6.376;-10.782;2023-12-14T03:39:49;25.67;;;19.48;;
56299;SDS011;42209;6.376;-10.782;2023-12-14T03:42:17;22.75;;;17.55;;
56299;SDS011;42209;6.376;-10.782;2023-12-14T03:44:46;19.55;;;17.50;;
56299;SDS011;42209;6.376;-10.782;2023-12-14T03:47:14;22.20;;;18.02;;
56299;SDS011;42209;6.376;-10.782;2023-12-14T03:49:42;20.98;;;17.23;;
56299;SDS011;42209;6.376;-10.782;2023-12-14T03:52:11;19.45;;;17.35;;
56299;SDS011;42209;6.376;-10.782;2023-12-14T03:54:39;21.67;;;18.23;;
56299;SDS011;42209;6.376;-10.782;2023-12-14T03:57:08;20.88;;;18.63;;
56299;SDS011;42209;6.376;-10.782;2023-12-14T03:59:39;20.20;;;17.38;;
56299;SDS011;42209;6.376;-10.782;2023-12-14T04:02:08;24.70;;;18.73;;
56299;SDS011;42209;6.376;-10.782;2023-12-14T04:04:37;22.92;;;17.77;;
56299;SDS011;42209;6.376;-10.782;2023-12-14T04:07:05;23.30;;;17.98;;
56299;SDS011;42209;6.376;-10.782;2023-12-14T04:09:34;22.58;;;18.15;;
56299;SDS011;42209;6.376;-10.782;2023-12-14T04:12:02;21.30;;;18.92;;
56299;SDS011;42209;6.376;-10.782;2023-12-14T04:14:31;23.80;;;19.45;;
56299;SDS011;42209;6.376;-10.782;2023-12-14T04:17:00;21.95;;;19.05;;
56299;SDS011;42209;6.376;-10.782;2023-12-14T04:19:28;21.25;;;18.67;;
56299;SDS011;42209;6.376;-10.782;2023-12-14T04:21:56;20.10;;;18.08;;
56299;SDS011;42209;6.376;-10.782;2023-12-14T04:24:25;21.17;;;18.73;;
56299;SDS011;42209;6.376;-10.782;2023-12-14T04:26:53;19.63;;;17.50;;
56299;SDS011;42209;6.376;-10.782;2023-12-14T04:29:21;20.52;;;17.98;;
56299;SDS011;42209;6.376;-10.782;2023-12-14T04:31:50;20.85;;;18.65;;
56299;SDS011;42209;6.376;-10.782;2023-12-14T04:34:18;21.17;;;18.30;;
56299;SDS011;42209;6.376;-10.782;2023-12-14T04:36:46;19.77;;;17.30;;
56299;SDS011;42209;6.376;-10.782;2023-12-14T04:41:43;21.42;;;19.00;;
56299;SDS011;42209;6.376;-10.782;2023-12-14T04:44:11;20.40;;;18.20;;
56299;SDS011;42209;6.376;-10.782;2023-12-14T04:49:08;20.13;;;18.08;;
56299;SDS011;42209;6.376;-10.782;2023-12-14T04:51:37;20.15;;;17.83;;
56299;SDS011;42209;6.376;-10.782;2023-12-14T04:54:05;21.35;;;19.08;;
56299;SDS011;42209;6.376;-10.782;2023-12-14T04:56:33;22.55;;;19.23;;
56299;SDS011;42209;6.376;-10.782;2023-12-14T04:59:02;19.48;;;17.58;;
56299;SDS011;42209;6.376;-10.782;2023-12-14T05:01:30;22.77;;;18.25;;
56299;SDS011;42209;6.376;-10.782;2023-12-14T05:04:01;22.35;;;18.92;;
56299;SDS011;42209;6.376;-10.782;2023-12-14T05:06:29;19.67;;;17.58;;
56299;SDS011;42209;6.376;-10.782;2023-12-14T05:08:57;20.40;;;18.23;;
56299;SDS011;42209;6.376;-10.782;2023-12-14T05:11:26;21.70;;;18.70;;
56299;SDS011;42209;6.376;-10.782;2023-12-14T05:13:54;20.63;;;17.45;;
56299;SDS011;42209;6.376;-10.782;2023-12-14T05:18:51;21.58;;;17.75;;
56299;SDS011;42209;6.376;-10.782;2023-12-14T05:21:20;19.25;;;17.38;;
56299;SDS011;42209;6.376;-10.782;2023-12-14T05:23:48;21.48;;;19.20;;
56299;SDS011;42209;6.376;-10.782;2023-12-14T05:26:17;19.45;;;17.35;;
56299;SDS011;42209;6.376;-10.782;2023-12-14T05:28:45;19.15;;;17.13;;
56299;SDS011;42209;6.376;-10.782;2023-12-14T05:31:13;18.05;;;16.23;;
56299;SDS011;42209;6.376;-10.782;2023-12-14T05:33:42;19.35;;;17.20;;
56299;SDS011;42209;6.376;-10.782;2023-12-14T05:36:10;17.55;;;15.80;;
56299;SDS011;42209;6.376;-10.782;2023-12-14T05:38:39;18.08;;;16.27;;
56299;SDS011;42209;6.376;-10.782;2023-12-14T05:41:08;18.73;;;16.50;;
56299;SDS011;42209;6.376;-10.782;2023-12-14T05:43:38;18.58;;;16.67;;
56299;SDS011;42209;6.376;-10.782;2023-12-14T05:46:08;20.00;;;16.10;;
56299;SDS011;42209;6.376;-10.782;2023-12-14T05:48:37;19.00;;;17.10;;
56299;SDS011;42209;6.376;-10.782;2023-12-14T05:51:05;18.23;;;16.35;;
56299;SDS011;42209;6.376;-10.782;2023-12-14T05:53:34;19.13;;;16.40;;
56299;SDS011;42209;6.376;-10.782;2023-12-14T05:56:02;17.48;;;15.15;;
56299;SDS011;42209;6.376;-10.782;2023-12-14T05:58:31;17.73;;;15.55;;
56299;SDS011;42209;6.376;-10.782;2023-12-14T06:00:59;17.50;;;15.63;;
56299;SDS011;42209;6.376;-10.782;2023-12-14T06:03:28;18.17;;;16.27;;
56299;SDS011;42209;6.376;-10.782;2023-12-14T06:05:56;16.60;;;14.77;;
56299;SDS011;42209;6.376;-10.782;2023-12-14T06:08:24;16.33;;;14.63;;
56299;SDS011;42209;6.376;-10.782;2023-12-14T06:10:53;17.60;;;15.90;;
56299;SDS011;42209;6.376;-10.782;2023-12-14T06:13:24;18.30;;;16.35;;
56299;SDS011;42209;6.376;-10.782;2023-12-14T06:15:53;16.95;;;15.32;;
56299;SDS011;42209;6.376;-10.782;2023-12-14T06:18:21;17.27;;;15.43;;
56299;SDS011;42209;6.376;-10.782;2023-12-14T06:20:49;15.80;;;14.15;;
56299;SDS011;42209;6.376;-10.782;2023-12-14T06:23:18;17.10;;;15.38;;
56299;SDS011;42209;6.376;-10.782;2023-12-14T06:25:46;15.48;;;13.95;;
56299;SDS011;42209;6.376;-10.782;2023-12-14T06:28:15;16.13;;;14.52;;
56299;SDS011;42209;6.376;-10.782;2023-12-14T06:30:43;16.42;;;14.63;;
56299;SDS011;42209;6.376;-10.782;2023-12-14T06:33:11;16.05;;;14.30;;
56299;SDS011;42209;6.376;-10.782;2023-12-14T06:35:40;16.92;;;14.65;;
56299;SDS011;42209;6.376;-10.782;2023-12-14T06:38:09;16.50;;;14.35;;
56299;SDS011;42209;6.376;-10.782;2023-12-14T06:43:06;15.27;;;13.77;;
56299;SDS011;42209;6.376;-10.782;2023-12-14T06:45:37;15.65;;;14.07;;
56299;SDS011;42209;6.376;-10.782;2023-12-14T06:48:06;16.10;;;14.13;;
56299;SDS011;42209;6.376;-10.782;2023-12-14T06:50:34;15.32;;;13.80;;
56299;SDS011;42209;6.376;-10.782;2023-12-14T06:53:03;15.13;;;13.52;;
56299;SDS011;42209;6.376;-10.782;2023-12-14T06:55:31;14.65;;;13.25;;
56299;SDS011;42209;6.376;-10.782;2023-12-14T06:58:00;14.63;;;13.25;;
56299;SDS011;42209;6.376;-10.782;2023-12-14T07:00:28;15.15;;;13.65;;
56299;SDS011;42209;6.376;-10.782;2023-12-14T07:02:56;13.63;;;12.43;;
56299;SDS011;42209;6.376;-10.782;2023-12-14T07:05:25;14.48;;;12.98;;
56299;SDS011;42209;6.376;-10.782;2023-12-14T07:10:22;13.63;;;12.32;;
56299;SDS011;42209;6.376;-10.782;2023-12-14T07:12:50;14.85;;;12.60;;
56299;SDS011;42209;6.376;-10.782;2023-12-14T07:15:19;13.07;;;11.77;;
56299;SDS011;42209;6.376;-10.782;2023-12-14T07:17:47;13.75;;;12.43;;
56299;SDS011;42209;6.376;-10.782;2023-12-14T07:22:44;14.32;;;12.68;;
56299;SDS011;42209;6.376;-10.782;2023-12-14T07:25:13;12.90;;;11.55;;
56299;SDS011;42209;6.376;-10.782;2023-12-14T07:27:41;13.45;;;12.00;;
56299;SDS011;42209;6.376;-10.782;2023-12-14T07:30:09;14.30;;;11.63;;
56299;SDS011;42209;6.376;-10.782;2023-12-14T07:32:38;12.75;;;10.85;;
56299;SDS011;42209;6.376;-10.782;2023-12-14T07:37:35;17.02;;;12.00;;
56299;SDS011;42209;6.376;-10.782;2023-12-14T07:40:04;16.17;;;11.95;;
56299;SDS011;42209;6.376;-10.782;2023-12-14T07:42:33;13.05;;;11.00;;
56299;SDS011;42209;6.376;-10.782;2023-12-14T07:47:30;13.10;;;11.70;;
56299;SDS011;42209;6.376;-10.782;2023-12-14T07:49:58;13.55;;;11.60;;
56299;SDS011;42209;6.376;-10.782;2023-12-14T07:54:55;13.65;;;10.95;;
56299;SDS011;42209;6.376;-10.782;2023-12-14T07:57:23;13.20;;;11.02;;
56299;SDS011;42209;6.376;-10.782;2023-12-14T07:59:51;11.68;;;10.30;;
56299;SDS011;42209;6.376;-10.782;2023-12-14T08:02:20;12.38;;;11.00;;
56299;SDS011;42209;6.376;-10.782;2023-12-14T08:07:16;12.30;;;11.00;;
56299;SDS011;42209;6.376;-10.782;2023-12-14T08:09:45;11.90;;;10.77;;
56299;SDS011;42209;6.376;-10.782;2023-12-14T08:12:13;12.27;;;10.98;;
56299;SDS011;42209;6.376;-10.782;2023-12-14T08:14:41;14.32;;;12.35;;
56299;SDS011;42209;6.376;-10.782;2023-12-14T08:17:10;10.63;;;9.68;;
56299;SDS011;42209;6.376;-10.782;2023-12-14T08:19:39;12.95;;;11.15;;
56299;SDS011;42209;6.376;-10.782;2023-12-14T08:22:07;12.52;;;11.23;;
56299;SDS011;42209;6.376;-10.782;2023-12-14T08:24:36;11.80;;;10.77;;
56299;SDS011;42209;6.376;-10.782;2023-12-14T08:27:06;11.75;;;10.50;;
56299;SDS011;42209;6.376;-10.782;2023-12-14T08:29:34;12.30;;;10.98;;
56299;SDS011;42209;6.376;-10.782;2023-12-14T08:32:02;12.30;;;11.02;;
56299;SDS011;42209;6.376;-10.782;2023-12-14T08:34:31;11.88;;;10.77;;
56299;SDS011;42209;6.376;-10.782;2023-12-14T08:37:00;12.10;;;10.63;;
56299;SDS011;42209;6.376;-10.782;2023-12-14T08:41:57;10.88;;;9.88;;
56299;SDS011;42209;6.376;-10.782;2023-12-14T08:44:26;12.40;;;11.20;;
56299;SDS011;42209;6.376;-10.782;2023-12-14T08:46:54;10.68;;;9.68;;
56299;SDS011;42209;6.376;-10.782;2023-12-14T08:49:23;11.02;;;9.85;;
56299;SDS011;42209;6.376;-10.782;2023-12-14T08:51:51;10.60;;;9.48;;
56299;SDS011;42209;6.376;-10.782;2023-12-14T08:54:19;13.30;;;10.60;;
56299;SDS011;42209;6.376;-10.782;2023-12-14T08:56:48;10.55;;;9.55;;
56299;SDS011;42209;6.376;-10.782;2023-12-14T08:59:16;10.50;;;9.38;;
56299;SDS011;42209;6.376;-10.782;2023-12-14T09:01:44;13.00;;;10.13;;
56299;SDS011;42209;6.376;-10.782;2023-12-14T09:04:13;10.73;;;9.73;;
56299;SDS011;42209;6.376;-10.782;2023-12-14T09:06:42;11.48;;;10.35;;
56299;SDS011;42209;6.376;-10.782;2023-12-14T09:09:10;13.07;;;9.80;;
56299;SDS011;42209;6.376;-10.782;2023-12-14T09:11:39;10.75;;;9.65;;
56299;SDS011;42209;6.376;-10.782;2023-12-14T09:14:08;11.65;;;10.65;;
56299;SDS011;42209;6.376;-10.782;2023-12-14T09:16:38;10.63;;;9.63;;
56299;SDS011;42209;6.376;-10.782;2023-12-14T09:19:06;10.27;;;9.27;;
56299;SDS011;42209;6.376;-10.782;2023-12-14T09:21:36;11.05;;;10.00;;
56299;SDS011;42209;6.376;-10.782;2023-12-14T09:24:12;9.45;;;8.65;;
56299;SDS011;42209;6.376;-10.782;2023-12-14T09:26:42;9.65;;;8.68;;
56299;SDS011;42209;6.376;-10.782;2023-12-14T09:29:10;10.07;;;8.95;;
56299;SDS011;42209;6.376;-10.782;2023-12-14T09:31:42;10.82;;;9.73;;
56299;SDS011;42209;6.376;-10.782;2023-12-14T09:34:11;9.52;;;8.63;;
56299;SDS011;42209;6.376;-10.782;2023-12-14T09:36:40;10.43;;;9.40;;
56299;SDS011;42209;6.376;-10.782;2023-12-14T09:39:09;10.15;;;9.15;;
56299;SDS011;42209;6.376;-10.782;2023-12-14T09:41:38;10.55;;;9.57;;
56299;SDS011;42209;6.376;-10.782;2023-12-14T09:46:36;10.85;;;8.63;;
56299;SDS011;42209;6.376;-10.782;2023-12-14T09:49:06;9.63;;;8.43;;
56299;SDS011;42209;6.376;-10.782;2023-12-14T09:51:35;8.45;;;7.72;;
56299;SDS011;42209;6.376;-10.782;2023-12-14T09:54:03;10.32;;;9.02;;
56299;SDS011;42209;6.376;-10.782;2023-12-14T09:56:32;9.50;;;8.60;;
56299;SDS011;42209;6.376;-10.782;2023-12-14T09:59:00;8.25;;;7.53;;
56299;SDS011;42209;6.376;-10.782;2023-12-14T10:01:30;9.43;;;8.63;;
56299;SDS011;42209;6.376;-10.782;2023-12-14T10:04:17;9.55;;;8.70;;
56299;SDS011;42209;6.376;-10.782;2023-12-14T10:06:47;9.88;;;8.88;;
56299;SDS011;42209;6.376;-10.782;2023-12-14T10:09:15;9.57;;;8.65;;
56299;SDS011;42209;6.376;-10.782;2023-12-14T10:11:51;10.57;;;9.60;;
56299;SDS011;42209;6.376;-10.782;2023-12-14T10:14:36;9.52;;;8.60;;
56299;SDS011;42209;6.376;-10.782;2023-12-14T10:17:18;9.48;;;8.52;;
56299;SDS011;42209;6.376;-10.782;2023-12-14T10:19:48;9.98;;;9.07;;
56299;SDS011;42209;6.376;-10.782;2023-12-14T10:22:17;9.55;;;8.65;;
56299;SDS011;42209;6.376;-10.782;2023-12-14T10:24:49;9.25;;;8.35;;
56299;SDS011;42209;6.376;-10.782;2023-12-14T10:27:17;9.30;;;8.50;;
56299;SDS011;42209;6.376;-10.782;2023-12-14T10:29:46;9.43;;;8.60;;
56299;SDS011;42209;6.376;-10.782;2023-12-14T10:32:15;9.90;;;9.00;;
56299;SDS011;42209;6.376;-10.782;2023-12-14T10:34:44;10.35;;;9.40;;
56299;SDS011;42209;6.376;-10.782;2023-12-14T10:37:12;9.40;;;8.60;;
56299;SDS011;42209;6.376;-10.782;2023-12-14T10:39:42;10.55;;;9.32;;
56299;SDS011;42209;6.376;-10.782;2023-12-14T10:42:10;9.43;;;8.52;;
56299;SDS011;42209;6.376;-10.782;2023-12-14T10:44:48;9.93;;;9.02;;
56299;SDS011;42209;6.376;-10.782;2023-12-14T10:47:22;9.88;;;8.90;;
56299;SDS011;42209;6.376;-10.782;2023-12-14T10:49:50;9.68;;;8.88;;
56299;SDS011;42209;6.376;-10.782;2023-12-14T10:52:19;9.90;;;9.00;;
56299;SDS011;42209;6.376;-10.782;2023-12-14T10:54:51;9.77;;;8.77;;
56299;SDS011;42209;6.376;-10.782;2023-12-14T10:57:24;11.02;;;8.93;;
56299;SDS011;42209;6.376;-10.782;2023-12-14T10:59:58;9.80;;;8.88;;
56299;SDS011;42209;6.376;-10.782;2023-12-14T11:02:30;10.32;;;9.32;;
56299;SDS011;42209;6.376;-10.782;2023-12-14T11:05:07;10.00;;;9.07;;
56299;SDS011;42209;6.376;-10.782;2023-12-14T11:08:00;12.20;;;9.65;;
56299;SDS011;42209;6.376;-10.782;2023-12-14T11:10:36;10.20;;;9.25;;
56299;SDS011;42209;6.376;-10.782;2023-12-14T11:13:08;9.68;;;8.80;;
56299;SDS011;42209;6.376;-10.782;2023-12-14T11:15:38;10.50;;;9.15;;
56299;SDS011;42209;6.376;-10.782;2023-12-14T11:23:13;10.50;;;9.38;;
56299;SDS011;42209;6.376;-10.782;2023-12-14T11:25:48;10.80;;;9.63;;
56299;SDS011;42209;6.376;-10.782;2023-12-14T11:28:26;10.02;;;9.13;;
56299;SDS011;42209;6.376;-10.782;2023-12-14T11:30:56;10.73;;;9.63;;
56299;SDS011;42209;6.376;-10.782;2023-12-14T11:33:24;14.30;;;9.93;;
56299;SDS011;42209;6.376;-10.782;2023-12-14T11:35:53;10.13;;;9.25;;
56299;SDS011;42209;6.376;-10.782;2023-12-14T11:40:50;9.95;;;9.15;;
56299;SDS011;42209;6.376;-10.782;2023-12-14T11:43:19;10.32;;;9.43;;
56299;SDS011;42209;6.376;-10.782;2023-12-14T11:45:48;10.25;;;9.23;;
56299;SDS011;42209;6.376;-10.782;2023-12-14T11:50:45;9.60;;;8.65;;
56299;SDS011;42209;6.376;-10.782;2023-12-14T11:53:13;10.40;;;9.40;;
56299;SDS011;42209;6.376;-10.782;2023-12-14T11:55:42;10.65;;;9.52;;
56299;SDS011;42209;6.376;-10.782;2023-12-14T11:58:12;11.00;;;9.98;;
56299;SDS011;42209;6.376;-10.782;2023-12-14T12:00:43;10.05;;;9.13;;
56299;SDS011;42209;6.376;-10.782;2023-12-14T12:03:18;10.82;;;9.40;;
56299;SDS011;42209;6.376;-10.782;2023-12-14T12:05:48;9.75;;;8.75;;
56299;SDS011;42209;6.376;-10.782;2023-12-14T12:08:19;9.82;;;8.77;;
56299;SDS011;42209;6.376;-10.782;2023-12-14T12:10:48;10.18;;;9.38;;
56299;SDS011;42209;6.376;-10.782;2023-12-14T12:13:17;10.02;;;8.98;;
56299;SDS011;42209;6.376;-10.782;2023-12-14T12:15:47;10.10;;;9.10;;
56299;SDS011;42209;6.376;-10.782;2023-12-14T12:18:16;11.65;;;10.52;;
56299;SDS011;42209;6.376;-10.782;2023-12-14T12:20:45;11.25;;;10.18;;
56299;SDS011;42209;6.376;-10.782;2023-12-14T12:23:14;9.57;;;8.57;;
56299;SDS011;42209;6.376;-10.782;2023-12-14T12:25:42;10.45;;;9.50;;
56299;SDS011;42209;6.376;-10.782;2023-12-14T12:28:11;12.98;;;9.52;;
56299;SDS011;42209;6.376;-10.782;2023-12-14T12:30:39;9.75;;;8.77;;
56299;SDS011;42209;6.376;-10.782;2023-12-14T12:33:08;10.75;;;9.25;;
56299;SDS011;42209;6.376;-10.782;2023-12-14T12:38:04;10.50;;;9.45;;
56299;SDS011;42209;6.376;-10.782;2023-12-14T12:40:33;11.38;;;8.75;;
56299;SDS011;42209;6.376;-10.782;2023-12-14T12:43:01;13.15;;;10.27;;
56299;SDS011;42209;6.376;-10.782;2023-12-14T12:45:30;10.88;;;9.77;;
56299;SDS011;42209;6.376;-10.782;2023-12-14T12:47:58;10.82;;;9.57;;
56299;SDS011;42209;6.376;-10.782;2023-12-14T12:52:54;13.30;;;9.70;;
56299;SDS011;42209;6.376;-10.782;2023-12-14T12:57:51;10.98;;;9.05;;
56299;SDS011;42209;6.376;-10.782;2023-12-14T13:00:20;11.35;;;10.05;;
56299;SDS011;42209;6.376;-10.782;2023-12-14T13:02:48;11.50;;;8.45;;
56299;SDS011;42209;6.376;-10.782;2023-12-14T13:05:16;12.30;;;9.43;;
56299;SDS011;42209;6.376;-10.782;2023-12-14T13:07:45;11.30;;;10.10;;
56299;SDS011;42209;6.376;-10.782;2023-12-14T13:10:14;12.52;;;9.75;;
56299;SDS011;42209;6.376;-10.782;2023-12-14T13:12:57;13.52;;;10.52;;
56299;SDS011;42209;6.376;-10.782;2023-12-14T13:15:25;10.80;;;8.82;;
56299;SDS011;42209;6.376;-10.782;2023-12-14T13:17:55;11.35;;;9.77;;
56299;SDS011;42209;6.376;-10.782;2023-12-14T13:20:23;11.90;;;9.88;;
56299;SDS011;42209;6.376;-10.782;2023-12-14T13:22:52;11.63;;;9.43;;
56299;SDS011;42209;6.376;-10.782;2023-12-14T13:27:48;14.77;;;10.65;;
56299;SDS011;42209;6.376;-10.782;2023-12-14T13:30:17;11.18;;;9.93;;
56299;SDS011;42209;6.376;-10.782;2023-12-14T13:35:13;9.88;;;8.88;;
56299;SDS011;42209;6.376;-10.782;2023-12-14T13:37:42;11.38;;;8.98;;
56299;SDS011;42209;6.376;-10.782;2023-12-14T13:40:10;13.80;;;10.23;;
56299;SDS011;42209;6.376;-10.782;2023-12-14T13:42:41;11.77;;;9.05;;
56299;SDS011;42209;6.376;-10.782;2023-12-14T13:45:25;12.63;;;9.88;;
56299;SDS011;42209;6.376;-10.782;2023-12-14T13:50:23;12.10;;;9.57;;
56299;SDS011;42209;6.376;-10.782;2023-12-14T13:52:51;10.25;;;9.25;;
56299;SDS011;42209;6.376;-10.782;2023-12-14T13:55:20;12.70;;;8.98;;
56299;SDS011;42209;6.376;-10.782;2023-12-14T13:57:49;14.27;;;10.38;;
56299;SDS011;42209;6.376;-10.782;2023-12-14T14:00:17;15.45;;;10.02;;
56299;SDS011;42209;6.376;-10.782;2023-12-14T14:02:46;14.23;;;9.43;;
56299;SDS011;42209;6.376;-10.782;2023-12-14T14:05:14;11.90;;;9.98;;
56299;SDS011;42209;6.376;-10.782;2023-12-14T14:10:11;14.52;;;10.00;;
56299;SDS011;42209;6.376;-10.782;2023-12-14T14:15:08;12.38;;;9.50;;
56299;SDS011;42209;6.376;-10.782;2023-12-14T14:22:34;15.25;;;9.93;;
56299;SDS011;42209;6.376;-10.782;2023-12-14T14:25:05;12.48;;;9.88;;
56299;SDS011;42209;6.376;-10.782;2023-12-14T14:27:34;13.20;;;10.30;;
56299;SDS011;42209;6.376;-10.782;2023-12-14T14:30:02;11.82;;;10.15;;
56299;SDS011;42209;6.376;-10.782;2023-12-14T14:32:31;11.40;;;9.48;;
56299;SDS011;42209;6.376;-10.782;2023-12-14T14:35:00;10.77;;;8.77;;
56299;SDS011;42209;6.376;-10.782;2023-12-14T14:39:57;16.05;;;9.43;;
56299;SDS011;42209;6.376;-10.782;2023-12-14T14:42:25;13.98;;;9.07;;
56299;SDS011;42209;6.376;-10.782;2023-12-14T14:44:54;9.55;;;8.15;;
56299;SDS011;42209;6.376;-10.782;2023-12-14T14:47:22;11.75;;;9.27;;
56299;SDS011;42209;6.376;-10.782;2023-12-14T14:49:51;11.52;;;10.00;;
56299;SDS011;42209;6.376;-10.782;2023-12-14T14:52:20;15.07;;;8.93;;
56299;SDS011;42209;6.376;-10.782;2023-12-14T14:54:48;11.35;;;9.50;;
56299;SDS011;42209;6.376;-10.782;2023-12-14T14:57:16;12.98;;;8.65;;
56299;SDS011;42209;6.376;-10.782;2023-12-14T14:59:45;12.00;;;9.38;;
56299;SDS011;42209;6.376;-10.782;2023-12-14T15:02:13;14.40;;;9.43;;
56299;SDS011;42209;6.376;-10.782;2023-12-14T15:04:42;12.82;;;9.02;;
56299;SDS011;42209;6.376;-10.782;2023-12-14T15:09:38;13.23;;;8.45;;
56299;SDS011;42209;6.376;-10.782;2023-12-14T15:12:07;12.93;;;8.88;;
56299;SDS011;42209;6.376;-10.782;2023-12-14T15:14:35;13.13;;;8.68;;
56299;SDS011;42209;6.376;-10.782;2023-12-14T15:17:04;12.73;;;9.30;;
56299;SDS011;42209;6.376;-10.782;2023-12-14T15:19:32;12.43;;;9.75;;
56299;SDS011;42209;6.376;-10.782;2023-12-14T15:22:01;13.68;;;8.80;;
56299;SDS011;42209;6.376;-10.782;2023-12-14T15:24:29;12.90;;;9.38;;
56299;SDS011;42209;6.376;-10.782;2023-12-14T15:26:58;13.07;;;8.95;;
56299;SDS011;42209;6.376;-10.782;2023-12-14T15:29:26;12.77;;;10.02;;
56299;SDS011;42209;6.376;-10.782;2023-12-14T15:31:54;14.32;;;9.73;;
56299;SDS011;42209;6.376;-10.782;2023-12-14T15:34:23;10.48;;;9.23;;
56299;SDS011;42209;6.376;-10.782;2023-12-14T15:36:51;16.15;;;9.48;;
56299;SDS011;42209;6.376;-10.782;2023-12-14T15:39:20;11.38;;;9.20;;
56299;SDS011;42209;6.376;-10.782;2023-12-14T15:41:48;13.70;;;9.40;;
56299;SDS011;42209;6.376;-10.782;2023-12-14T15:44:17;12.63;;;8.85;;
56299;SDS011;42209;6.376;-10.782;2023-12-14T15:49:14;16.63;;;8.68;;
56299;SDS011;42209;6.376;-10.782;2023-12-14T15:54:10;12.23;;;8.35;;
56299;SDS011;42209;6.376;-10.782;2023-12-14T15:56:39;11.60;;;8.85;;
56299;SDS011;42209;6.376;-10.782;2023-12-14T16:01:36;12.15;;;8.60;;